Orchard Beach, Maryland
Current Conditions -  °F | °C
As of 1:54 PM on Thursday 23 Oct 2014 (Local Time) from KBWI Reporting Station
Broken Clouds Broken Clouds  
Wind Chill: 61°   Ceiling: 7500
Heat Index: 61°   Visibility: 10mi
Dew Point: 45°   Wind: 17mph
Humidity: 56%   Direction: 310°NW
Pressure: 29.83"   Gusts: 29mph
Location:  39.1918°N, 76.5466°W
Report Text: KBWI 231754Z 31015G25KT 10SM SCT039 BKN075 16/07 A2983 RMK AO2 PK WND 31026/1732 SLP100 T01610072 10161 20117 58012
Loading
Personal Weather Stations






























Interactive Weather Map
Tropical Storm Tracking
New forecast layout! Learn more

10-Day Weather Forecast

Advertisements
Track Severe Weather on mobile